Time;durP1;ratioP1;P1;durP2;ratioP2;P2;SDS_P1;SDS_P2;PMS_P1;PMS_P2;Temp;Humidity;BMP_temperature;BMP_pressure;BME280_temperature;BME280_humidity;BME280_pressure;Samples;Min_cycle;Max_cycle;Signal;HPM_P1;HPM_P2
2022/11/17 00:00:10;;;;;;;26.13;17.23;;;8.20;99.90;;;;;;5044962;28;20568;-47
2022/11/17 00:02:36;;;;;;;29.55;18.42;;;7.30;99.90;;;;;;5044347;28;20060;-47
2022/11/17 00:05:02;;;;;;;23.73;14.52;;;7.00;99.90;;;;;;5044608;28;20041;-50
2022/11/17 00:07:27;;;;;;;26.45;17.42;;;7.30;99.90;;;;;;5044469;28;20708;-49
2022/11/17 00:09:53;;;;;;;24.27;15.98;;;7.30;99.90;;;;;;5044446;28;20037;-47
2022/11/17 00:15:03;;;;;;;23.98;16.33;;;7.20;99.90;;;;;;5047399;28;20098;-50
2022/11/17 00:17:29;;;;;;;21.48;15.32;;;7.30;99.90;;;;;;5049042;28;20036;-48
2022/11/17 00:22:38;;;;;;;25.67;15.93;;;7.30;99.90;;;;;;5048924;28;20043;-47
2022/11/17 00:25:04;;;;;;;22.95;15.02;;;7.10;99.90;;;;;;5048975;28;20041;-48
2022/11/17 00:27:30;;;;;;;26.73;17.50;;;7.30;99.90;;;;;;5048676;28;20063;-48
2022/11/17 00:29:56;;;;;;;22.52;16.70;;;7.20;99.90;;;;;;5048385;28;20045;-49
2022/11/17 00:35:06;;;;;;;23.00;15.55;;;7.70;99.90;;;;;;5049256;28;20455;-48
2022/11/17 00:37:37;;;;;;;19.35;15.05;;;7.30;99.90;;;;;;5046455;28;20136;-47
2022/11/17 00:40:04;;;;;;;18.95;14.50;;;7.10;99.90;;;;;;5048312;28;20132;-50
2022/11/17 00:42:30;;;;;;;21.23;15.13;;;7.30;99.90;;;;;;5048111;28;20091;-50
2022/11/17 00:44:55;;;;;;;20.42;15.50;;;7.20;99.90;;;;;;5048242;28;20526;-50
2022/11/17 00:47:21;;;;;;;17.05;14.40;;;7.00;99.90;;;;;;5048043;28;20045;-48
2022/11/17 00:49:47;;;;;;;18.15;13.65;;;7.70;99.90;;;;;;5048310;28;20087;-49
2022/11/17 00:52:12;;;;;;;17.40;13.90;;;7.00;99.90;;;;;;5047841;28;20147;-47
2022/11/17 00:54:38;;;;;;;20.67;14.00;;;7.10;99.90;;;;;;5048216;28;20104;-47
2022/11/17 00:57:04;;;;;;;20.10;13.57;;;7.10;99.90;;;;;;5047320;28;20130;-51
2022/11/17 00:59:29;;;;;;;17.63;12.98;;;7.10;99.90;;;;;;5047643;28;20045;-49
2022/11/17 01:01:55;;;;;;;17.60;12.55;;;7.10;99.90;;;;;;5047543;28;20048;-48
2022/11/17 01:04:21;;;;;;;17.80;13.95;;;7.00;99.90;;;;;;5047415;28;20056;-47
2022/11/17 01:06:48;;;;;;;17.73;13.15;;;7.20;99.90;;;;;;5047514;28;20049;-49
2022/11/17 01:09:22;;;;;;;17.95;13.40;;;7.20;99.90;;;;;;5047037;28;20487;-48
2022/11/17 01:11:50;;;;;;;17.40;13.38;;;7.10;99.90;;;;;;5046600;28;20043;-46
2022/11/17 01:14:23;;;;;;;16.23;12.40;;;7.20;99.90;;;;;;5047334;28;20756;-47
2022/11/17 01:16:49;;;;;;;;;;;7.20;99.90;;;;;;5047506;28;20074;-49
2022/11/17 01:19:15;;;;;;;18.52;12.70;;;7.50;99.90;;;;;;5048240;28;20389;-48
2022/11/17 01:21:41;;;;;;;17.92;12.63;;;7.00;99.90;;;;;;5047937;28;20222;-49
2022/11/17 01:24:10;;;;;;;16.02;12.60;;;7.20;99.90;;;;;;5048028;28;20540;-47
2022/11/17 01:26:36;;;;;;;18.95;12.90;;;7.50;99.90;;;;;;5046823;28;20090;-46
2022/11/17 01:29:03;;;;;;;15.75;11.40;;;7.30;99.90;;;;;;5045786;28;20048;-51
2022/11/17 01:31:31;;;;;;;18.33;12.13;;;7.20;99.90;;;;;;5046222;28;20085;-49
2022/11/17 01:33:57;;;;;;;17.10;13.32;;;7.30;99.90;;;;;;5047255;28;20041;-50
2022/11/17 01:37:17;;;;;;;18.13;12.80;;;8.20;99.90;;;;;;5047193;28;20106;-46
2022/11/17 01:39:16;;;;;;;17.48;12.75;;;7.10;99.90;;;;;;5047236;28;20088;-46
2022/11/17 01:41:41;;;;;;;20.02;13.52;;;7.00;99.90;;;;;;5047593;28;20099;-47
2022/11/17 01:44:35;;;;;;;19.33;13.48;;;7.70;99.90;;;;;;5047338;28;20036;-48
2022/11/17 01:47:12;;;;;;;15.65;12.38;;;7.30;99.90;;;;;;5047850;28;20041;-47
2022/11/17 01:49:38;;;;;;;16.08;11.98;;;7.30;99.90;;;;;;5046913;28;20059;-47
2022/11/17 01:52:08;;;;;;;14.95;11.18;;;7.20;99.90;;;;;;5047122;28;20048;-49
2022/11/17 01:54:39;;;;;;;15.20;11.30;;;7.20;99.90;;;;;;5046941;28;20060;-49
2022/11/17 01:57:31;;;;;;;16.05;13.07;;;7.20;99.90;;;;;;5047328;28;20056;-50
2022/11/17 02:00:04;;;;;;;18.17;13.40;;;7.20;99.90;;;;;;5046917;28;20387;-46
2022/11/17 02:02:31;;;;;;;17.02;10.50;;;7.80;99.90;;;;;;5046553;28;20064;-48
2022/11/17 02:05:32;;;;;;;16.63;11.43;;;7.50;99.90;;;;;;5046808;28;20124;-48
2022/11/17 02:08:00;;;;;;;18.38;12.13;;;7.20;99.90;;;;;;5046426;28;20044;-51
2022/11/17 02:10:30;;;;;;;15.20;10.93;;;7.50;99.90;;;;;;5044850;28;20155;-47
2022/11/17 02:12:57;;;;;;;14.70;11.25;;;7.70;99.90;;;;;;5046273;28;20055;-47
2022/11/17 02:15:23;;;;;;;18.52;13.02;;;8.30;99.90;;;;;;5046136;28;20045;-51
2022/11/17 02:17:51;;;;;;;20.85;13.57;;;7.10;99.90;;;;;;5046239;28;20537;-46
2022/11/17 02:20:39;;;;;;;16.35;11.07;;;8.00;99.90;;;;;;5045600;28;20573;-48
2022/11/17 02:23:59;;;;;;;19.50;12.60;;;7.40;99.90;;;;;;5046146;28;20040;-47
2022/11/17 02:27:10;;;;;;;17.40;12.07;;;7.30;99.90;;;;;;5043105;28;20882;-50
2022/11/17 02:29:35;;;;;;;15.93;11.82;;;7.20;99.90;;;;;;5046718;28;20083;-47
2022/11/17 02:32:16;;;;;;;17.15;12.32;;;7.40;99.90;;;;;;5046370;28;20048;-48
2022/11/17 02:35:02;;;;;;;16.38;12.40;;;7.30;99.90;;;;;;5046298;28;20037;-50
2022/11/17 02:37:36;;;;;;;17.95;12.88;;;7.50;99.90;;;;;;5046169;28;20124;-48
2022/11/17 02:40:20;;;;;;;21.63;14.30;;;7.10;99.90;;;;;;5046237;28;20120;-49
2022/11/17 02:46:03;;;;;;;16.40;12.80;;;7.20;99.90;;;;;;5046166;28;20179;-47
2022/11/17 02:48:43;;;;;;;17.05;13.82;;;7.10;99.90;;;;;;5045948;28;20056;-46
2022/11/17 02:51:13;;;;;;;18.23;12.13;;;7.10;99.90;;;;;;5045689;28;20092;-49
2022/11/17 02:53:40;;;;;;;20.90;14.02;;;7.10;99.90;;;;;;5045512;28;20052;-48
2022/11/17 02:56:06;;;;;;;22.92;15.63;;;6.90;99.90;;;;;;5046639;28;20425;-48
2022/11/17 02:58:32;;;;;;;19.40;13.73;;;7.80;99.90;;;;;;5044963;28;20098;-47
2022/11/17 03:01:12;;;;;;;26.98;16.95;;;6.90;99.90;;;;;;5046465;28;20045;-47
2022/11/17 03:04:04;;;;;;;21.58;15.52;;;6.80;99.90;;;;;;5045478;28;20100;-47
2022/11/17 03:06:57;;;;;;;23.30;16.10;;;6.70;99.90;;;;;;5045472;28;20076;-50
2022/11/17 03:09:26;;;;;;;22.73;14.65;;;6.80;99.90;;;;;;5045808;28;20526;-49
2022/11/17 03:12:03;;;;;;;25.27;16.15;;;6.80;99.90;;;;;;5045631;28;20146;-46
2022/11/17 03:14:42;;;;;;;25.30;17.85;;;6.80;99.90;;;;;;5045558;28;20122;-46
2022/11/17 03:17:41;;;;;;;28.50;17.77;;;6.60;99.90;;;;;;5045802;28;20123;-46
2022/11/17 03:20:19;;;;;;;30.50;18.42;;;6.60;99.90;;;;;;5045871;28;20045;-50
2022/11/17 03:23:01;;;;;;;27.65;17.20;;;7.60;99.90;;;;;;5060587;28;20148;-47
2022/11/17 03:25:31;;;;;;;35.47;20.13;;;6.60;99.90;;;;;;5045726;28;20133;-50
2022/11/17 03:28:02;;;;;;;30.38;17.20;;;7.00;99.90;;;;;;5045857;28;20037;-47
2022/11/17 03:30:28;;;;;;;32.75;21.38;;;6.80;99.90;;;;;;5045846;28;20367;-46
2022/11/17 03:33:04;;;;;;;27.05;18.70;;;7.00;99.90;;;;;;5045226;28;20040;-47
2022/11/17 03:35:33;;;;;;;32.53;18.45;;;6.90;99.90;;;;;;5045849;28;20048;-48
2022/11/17 03:38:07;;;;;;;29.52;19.77;;;6.90;99.90;;;;;;5045720;28;20048;-47
2022/11/17 03:40:35;;;;;;;30.25;18.52;;;6.80;99.90;;;;;;5046253;28;20056;-47
2022/11/17 03:43:05;;;;;;;35.97;21.08;;;6.70;99.90;;;;;;5045994;28;20106;-50
2022/11/17 03:45:34;;;;;;;36.45;21.70;;;6.90;99.90;;;;;;5046345;28;20044;-48
2022/11/17 03:48:17;;;;;;;30.98;17.65;;;6.70;99.90;;;;;;5045754;28;20041;-46
2022/11/17 03:50:46;;;;;;;;;;;6.50;99.90;;;;;;5049643;28;20102;-47
2022/11/17 03:53:12;;;;;;;43.53;19.08;;;6.60;99.90;;;;;;5049248;28;20352;-51
2022/11/17 03:56:01;;;;;;;39.25;21.80;;;6.60;99.90;;;;;;5049069;28;20049;-49
2022/11/17 03:58:33;;;;;;;31.92;18.02;;;6.60;99.90;;;;;;5049679;28;20139;-48
2022/11/17 04:01:01;;;;;;;34.60;22.98;;;6.60;99.90;;;;;;5049330;28;20421;-48
2022/11/17 04:03:33;;;;;;;41.45;22.48;;;6.60;99.90;;;;;;5048978;28;20053;-48
2022/11/17 04:06:00;;;;;;;36.08;21.95;;;6.50;99.90;;;;;;5049179;28;20049;-48
2022/11/17 04:08:29;;;;;;;39.13;22.15;;;6.50;99.90;;;;;;5049215;28;20449;-51
2022/11/17 04:16:26;;;;;;;35.80;20.13;;;6.60;99.90;;;;;;5049027;28;20048;-50
2022/11/17 04:18:52;;;;;;;35.78;19.98;;;6.50;99.90;;;;;;5048661;28;20120;-48
2022/11/17 04:21:17;;;;;;;35.80;20.90;;;6.40;99.90;;;;;;5048741;28;20052;-48
2022/11/17 04:23:43;;;;;;;37.55;20.08;;;6.30;99.90;;;;;;5049013;28;20049;-47
2022/11/17 04:28:54;;;;;;;36.42;19.20;;;6.30;99.90;;;;;;5048414;28;20625;-48
2022/11/17 04:31:23;;;;;;;27.98;16.48;;;6.60;99.90;;;;;;5048504;28;20061;-47
2022/11/17 04:33:51;;;;;;;34.20;20.17;;;6.40;99.90;;;;;;5048496;28;20037;-48
2022/11/17 04:36:23;;;;;;;33.17;18.45;;;6.40;99.90;;;;;;5048485;28;20041;-48
2022/11/17 04:38:51;;;;;;;35.85;19.63;;;6.40;99.90;;;;;;5046836;28;20048;-47
2022/11/17 04:44:03;;;;;;;33.60;18.67;;;6.30;99.90;;;;;;5048127;28;20829;-49
2022/11/17 04:46:31;;;;;;;34.42;17.65;;;6.20;99.90;;;;;;5048300;28;20049;-47
2022/11/17 04:48:57;;;;;;;36.65;17.30;;;7.00;99.90;;;;;;5047822;28;20041;-47
2022/11/17 04:51:24;;;;;;;33.20;18.23;;;6.40;99.90;;;;;;5048273;28;20080;-48
2022/11/17 04:53:50;;;;;;;29.85;17.80;;;6.30;99.90;;;;;;5048021;28;20414;-46
2022/11/17 04:56:18;;;;;;;37.47;18.38;;;6.30;99.90;;;;;;5048814;28;20059;-47
2022/11/17 04:58:44;;;;;;;35.17;19.35;;;6.40;99.90;;;;;;5048284;28;20037;-45
2022/11/17 05:01:12;;;;;;;32.53;18.52;;;6.30;99.90;;;;;;5047777;28;20051;-48
2022/11/17 05:03:45;;;;;;;32.72;15.57;;;6.30;99.90;;;;;;5048289;28;20387;-46
2022/11/17 05:06:14;;;;;;;32.80;16.92;;;6.20;99.90;;;;;;5048069;28;20049;-49
2022/11/17 05:08:40;;;;;;;30.98;18.23;;;6.20;99.90;;;;;;5048290;28;20438;-50
2022/11/17 05:13:52;;;;;;;29.42;16.08;;;7.30;99.90;;;;;;5047653;28;20098;-46
2022/11/17 05:19:05;;;;;;;30.45;16.50;;;6.10;99.90;;;;;;5046882;28;20052;-46
2022/11/17 05:21:31;;;;;;;32.85;18.17;;;6.20;99.90;;;;;;5047429;28;20426;-47
2022/11/17 05:23:56;;;;;;;30.15;16.20;;;6.20;99.90;;;;;;5046904;28;20045;-49
2022/11/17 05:26:25;;;;;;;31.65;15.95;;;6.20;99.90;;;;;;5047105;28;20098;-48
2022/11/17 05:28:53;;;;;;;31.98;16.80;;;6.20;99.90;;;;;;5047303;28;20048;-46
2022/11/17 05:31:18;;;;;;;31.88;17.88;;;6.20;99.90;;;;;;5047339;28;20052;-47
2022/11/17 05:33:44;;;;;;;31.42;18.35;;;6.20;99.90;;;;;;5047485;28;20489;-46
2022/11/17 05:36:10;;;;;;;30.60;17.33;;;6.10;99.90;;;;;;5047462;28;20092;-47
2022/11/17 05:38:36;;;;;;;30.90;16.52;;;6.00;99.90;;;;;;5047031;28;20760;-48
2022/11/17 05:41:02;;;;;;;28.70;15.93;;;6.10;99.90;;;;;;5047143;28;20051;-47
2022/11/17 05:43:27;;;;;;;29.30;16.25;;;6.20;99.90;;;;;;5047731;28;20049;-46
2022/11/17 05:45:53;;;;;;;27.85;13.55;;;6.10;99.90;;;;;;5047366;28;20551;-48
2022/11/17 05:48:19;;;;;;;24.40;14.88;;;6.10;99.90;;;;;;5047352;28;20087;-49
2022/11/17 05:50:44;;;;;;;30.58;15.90;;;6.10;99.90;;;;;;5046977;28;20052;-47
2022/11/17 05:53:10;;;;;;;27.02;15.82;;;6.00;99.90;;;;;;5047222;28;20041;-48
2022/11/17 05:55:36;;;;;;;27.77;16.17;;;6.10;99.90;;;;;;5046751;28;20060;-46
2022/11/17 05:58:11;;;;;;;22.55;14.35;;;6.20;99.90;;;;;;5046934;28;20043;-46
2022/11/17 06:00:38;;;;;;;27.23;15.55;;;6.00;99.90;;;;;;5047270;28;20064;-47
2022/11/17 06:03:12;;;;;;;25.00;14.80;;;6.10;99.90;;;;;;5046798;28;20045;-49
2022/11/17 06:05:38;;;;;;;24.90;14.85;;;6.10;99.90;;;;;;5047101;28;20130;-48
2022/11/17 06:08:04;;;;;;;26.48;14.73;;;6.20;99.90;;;;;;5046645;28;20045;-47
2022/11/17 06:10:32;;;;;;;25.70;14.25;;;5.90;99.90;;;;;;5046908;28;20051;-48
2022/11/17 06:12:58;;;;;;;25.48;13.80;;;6.00;99.90;;;;;;5046122;28;20080;-47
2022/11/17 06:15:23;;;;;;;23.98;14.00;;;5.90;99.90;;;;;;5046214;28;20048;-47
2022/11/17 06:18:00;;;;;;;26.02;14.27;;;6.10;99.90;;;;;;5046356;28;20040;-51
2022/11/17 06:20:32;;;;;;;23.33;14.65;;;6.00;99.90;;;;;;5044162;28;20053;-48
2022/11/17 06:23:03;;;;;;;27.00;15.63;;;5.90;99.90;;;;;;5045755;28;20048;-50
2022/11/17 06:25:29;;;;;;;19.43;12.80;;;5.90;99.90;;;;;;5046025;28;20767;-50
2022/11/17 06:27:56;;;;;;;27.02;14.48;;;5.90;99.90;;;;;;5045926;28;20080;-51
2022/11/17 06:30:22;;;;;;;23.15;13.60;;;6.20;99.90;;;;;;5046165;28;20057;-50
2022/11/17 06:32:48;;;;;;;24.75;14.80;;;5.90;99.90;;;;;;5045833;28;20094;-48
2022/11/17 06:35:15;;;;;;;27.35;14.40;;;6.10;99.90;;;;;;5045630;28;20040;-51
2022/11/17 06:37:41;;;;;;;28.23;14.20;;;5.90;99.90;;;;;;5046402;28;20536;-50
2022/11/17 06:40:09;;;;;;;25.67;14.88;;;5.90;99.90;;;;;;5046265;28;20152;-47
2022/11/17 06:45:21;;;;;;;25.02;15.07;;;5.90;99.90;;;;;;5046628;28;20403;-51
2022/11/17 06:47:47;;;;;;;23.20;13.48;;;5.90;99.90;;;;;;5047046;28;20045;-49
2022/11/17 06:50:13;;;;;;;24.75;14.25;;;6.00;99.90;;;;;;5046775;28;20842;-49
2022/11/17 06:52:39;;;;;;;24.58;14.48;;;5.90;99.90;;;;;;5046788;28;20398;-51
2022/11/17 06:55:05;;;;;;;24.75;13.38;;;5.90;99.90;;;;;;5046321;28;20060;-51
2022/11/17 06:57:30;;;;;;;22.17;12.85;;;6.00;99.90;;;;;;5046962;28;20106;-50
2022/11/17 06:59:56;;;;;;;24.33;13.68;;;5.90;99.90;;;;;;5046542;28;20449;-50
2022/11/17 07:02:22;;;;;;;22.33;13.13;;;5.90;99.90;;;;;;5047151;28;20037;-50
2022/11/17 07:04:47;;;;;;;21.90;14.05;;;5.90;99.90;;;;;;5046439;28;20045;-49
2022/11/17 07:07:13;;;;;;;23.48;11.88;;;6.80;99.90;;;;;;5045882;28;20041;-49
2022/11/17 07:09:39;;;;;;;21.55;12.23;;;6.00;99.90;;;;;;5044820;28;20049;-51
2022/11/17 07:12:04;;;;;;;22.90;12.65;;;6.20;99.90;;;;;;5045850;28;20049;-50
2022/11/17 07:14:30;;;;;;;23.27;13.10;;;5.90;99.90;;;;;;5046040;28;20048;-51
2022/11/17 07:16:55;;;;;;;23.23;12.80;;;6.00;99.90;;;;;;5046247;28;20044;-50
2022/11/17 07:19:21;;;;;;;25.10;14.57;;;5.90;99.90;;;;;;5045370;28;20469;-50
2022/11/17 07:21:47;;;;;;;24.08;11.60;;;5.90;99.90;;;;;;5046282;28;20049;-49
2022/11/17 07:24:12;;;;;;;22.90;13.15;;;5.90;99.90;;;;;;5049179;28;20086;-48
2022/11/17 07:26:38;;;;;;;22.02;12.98;;;6.00;99.90;;;;;;5048516;28;20061;-51
2022/11/17 07:29:04;;;;;;;20.80;13.40;;;5.90;99.90;;;;;;5049957;28;20531;-51
2022/11/17 07:31:29;;;;;;;20.77;11.88;;;5.90;99.90;;;;;;5050060;28;20072;-51
2022/11/17 07:33:55;;;;;;;19.25;11.52;;;5.90;99.90;;;;;;5049882;28;20049;-49
2022/11/17 07:36:21;;;;;;;18.63;12.07;;;5.90;99.90;;;;;;5049542;28;20043;-49
2022/11/17 07:38:47;;;;;;;22.83;12.93;;;5.90;99.90;;;;;;5048305;28;20044;-48
2022/11/17 07:41:13;;;;;;;19.08;11.25;;;5.90;99.90;;;;;;5047878;28;20052;-51
2022/11/17 07:43:39;;;;;;;21.05;12.07;;;5.90;99.90;;;;;;5049565;28;20055;-50
2022/11/17 07:46:07;;;;;;;18.63;10.70;;;5.90;99.90;;;;;;5047940;28;20049;-52
2022/11/17 07:48:33;;;;;;;19.42;9.52;;;6.10;99.90;;;;;;5049689;28;20037;-52
2022/11/17 07:50:59;;;;;;;17.92;10.57;;;5.90;99.90;;;;;;5049481;28;20257;-49
2022/11/17 07:53:25;;;;;;;16.33;10.48;;;6.00;99.90;;;;;;5048784;28;20588;-52
2022/11/17 07:55:51;;;;;;;19.20;10.70;;;5.90;99.90;;;;;;5049212;28;20092;-50
2022/11/17 07:58:17;;;;;;;19.42;11.23;;;5.90;99.90;;;;;;5049534;28;20037;-52
2022/11/17 08:00:42;;;;;;;19.08;10.05;;;5.90;99.90;;;;;;5049077;28;20080;-51
2022/11/17 08:03:09;;;;;;;16.48;11.02;;;5.90;99.90;;;;;;5048772;28;20095;-49
2022/11/17 08:05:37;;;;;;;19.92;11.05;;;5.90;99.90;;;;;;5048672;28;20124;-51
2022/11/17 08:08:04;;;;;;;16.98;10.80;;;6.00;99.90;;;;;;5048963;28;20048;-53
2022/11/17 08:10:30;;;;;;;21.88;11.77;;;5.90;99.90;;;;;;5049129;28;20466;-52
2022/11/17 08:12:58;;;;;;;18.45;11.48;;;6.00;99.90;;;;;;5048150;28;20048;-48
2022/11/17 08:15:24;;;;;;;15.77;8.55;;;6.00;99.90;;;;;;5064229;28;20157;-48
2022/11/17 08:17:58;;;;;;;17.92;11.30;;;6.00;99.90;;;;;;5049365;28;20471;-52
2022/11/17 08:20:26;;;;;;;21.30;12.52;;;6.00;99.90;;;;;;5048632;28;20032;-52
2022/11/17 08:22:52;;;;;;;21.90;12.93;;;6.10;99.90;;;;;;5049179;28;20041;-51
2022/11/17 08:25:20;;;;;;;20.55;12.27;;;6.90;99.90;;;;;;5047842;28;20123;-48
2022/11/17 08:27:50;;;;;;;24.52;14.20;;;6.90;99.90;;;;;;5047574;28;20581;-51
2022/11/17 08:30:17;;;;;;;20.27;12.60;;;6.10;99.90;;;;;;5048231;28;20178;-51
2022/11/17 08:32:51;;;;;;;23.42;13.48;;;6.20;99.90;;;;;;5048573;28;20044;-50
2022/11/17 08:35:19;;;;;;;20.70;12.23;;;6.10;99.90;;;;;;5047500;28;20095;-53
2022/11/17 08:37:44;;;;;;;21.35;13.63;;;6.30;99.90;;;;;;5048254;28;20051;-53
2022/11/17 08:40:11;;;;;;;21.58;14.25;;;6.10;99.90;;;;;;5047613;28;20045;-54
2022/11/17 08:42:37;;;;;;;23.13;13.57;;;6.10;99.90;;;;;;5048624;28;20041;-54
2022/11/17 08:45:07;;;;;;;20.25;11.18;;;6.10;99.90;;;;;;5048156;28;20052;-53
2022/11/17 08:47:33;;;;;;;20.80;14.18;;;6.20;99.90;;;;;;5063781;28;20041;-53
2022/11/17 08:49:59;;;;;;;22.80;13.48;;;6.20;99.90;;;;;;5046733;28;20044;-55
2022/11/17 08:52:26;;;;;;;22.05;13.18;;;6.20;99.90;;;;;;5047728;28;20052;-56
2022/11/17 08:54:52;;;;;;;22.73;13.07;;;6.20;99.90;;;;;;5048097;28;20049;-56
2022/11/17 08:57:20;;;;;;;22.80;12.88;;;6.20;99.90;;;;;;5047872;28;20045;-56
2022/11/17 08:59:46;;;;;;;24.17;14.27;;;6.30;99.90;;;;;;5046658;28;20589;-56
2022/11/17 09:02:12;;;;;;;19.15;11.65;;;6.20;99.90;;;;;;5048193;28;20040;-57
2022/11/17 09:04:38;;;;;;;21.23;13.27;;;7.40;99.90;;;;;;5046555;28;20490;-57
2022/11/17 09:07:04;;;;;;;17.88;11.35;;;6.10;99.90;;;;;;5048281;28;20037;-56
2022/11/17 09:09:31;;;;;;;20.85;12.90;;;6.40;99.90;;;;;;5047613;28;20158;-56
2022/11/17 09:11:58;;;;;;;22.35;12.68;;;6.10;99.90;;;;;;5047582;28;20147;-55
2022/11/17 09:14:24;;;;;;;18.90;11.73;;;6.20;99.90;;;;;;5047804;28;20206;-55
2022/11/17 09:16:50;;;;;;;19.48;12.70;;;6.20;99.90;;;;;;5047509;28;20041;-57
2022/11/17 09:19:16;;;;;;;19.17;11.35;;;6.20;99.90;;;;;;5046102;28;20398;-55
2022/11/17 09:21:42;;;;;;;21.08;12.73;;;6.30;99.90;;;;;;5062868;28;20045;-56
2022/11/17 09:24:08;;;;;;;18.40;11.57;;;6.20;99.90;;;;;;5047818;28;20401;-56
2022/11/17 09:26:34;;;;;;;20.05;11.73;;;6.20;99.90;;;;;;5047635;28;20747;-54
2022/11/17 09:29:03;;;;;;;13.95;9.38;;;6.20;99.90;;;;;;5046585;28;20531;-54
2022/11/17 09:31:29;;;;;;;18.08;11.88;;;6.10;99.90;;;;;;5047757;28;20037;-54
2022/11/17 09:33:55;;;;;;;15.25;10.55;;;6.10;99.90;;;;;;5048145;28;20049;-55
2022/11/17 09:36:21;;;;;;;18.17;12.23;;;6.10;99.90;;;;;;5031931;28;20053;-55
2022/11/17 09:38:46;;;;;;;14.73;9.98;;;6.10;99.90;;;;;;5060248;28;20157;-55
2022/11/17 09:41:15;;;;;;;15.98;9.63;;;5.90;99.90;;;;;;5044266;28;20045;-56
2022/11/17 09:44:07;;;;;;;17.40;11.02;;;6.00;99.90;;;;;;5043939;28;20155;-55
2022/11/17 09:47:04;;;;;;;17.98;10.90;;;6.20;99.90;;;;;;5055069;28;20118;-55
2022/11/17 09:49:48;;;;;;;16.15;9.98;;;6.10;99.90;;;;;;5043617;28;20045;-54
2022/11/17 09:52:21;;;;;;;17.08;10.68;;;6.10;99.90;;;;;;5043098;28;20056;-59
2022/11/17 09:55:23;;;;;;;17.25;10.27;;;6.30;99.90;;;;;;5036163;28;20849;-61
2022/11/17 09:58:15;;;;;;;20.65;11.18;;;6.20;99.90;;;;;;5021293;28;20045;-63
2022/11/17 10:00:47;;;;;;;16.63;10.25;;;6.20;99.90;;;;;;5047329;28;20147;-64
2022/11/17 10:03:20;;;;;;;18.33;11.18;;;6.20;99.90;;;;;;5057725;28;20055;-57
2022/11/17 10:05:46;;;;;;;19.90;11.80;;;8.30;99.90;;;;;;5055599;28;20354;-60
2022/11/17 10:08:19;;;;;;;19.27;11.88;;;6.30;99.90;;;;;;5056414;28;20115;-59
2022/11/17 10:10:50;;;;;;;18.95;11.93;;;5.90;99.90;;;;;;5039994;28;20059;-63
2022/11/17 10:13:29;;;;;;;20.17;11.52;;;6.20;99.90;;;;;;5040348;28;20493;-59
2022/11/17 10:16:02;;;;;;;19.00;11.65;;;6.20;99.90;;;;;;5038841;28;20590;-59
2022/11/17 10:18:31;;;;;;;22.45;12.43;;;8.10;99.90;;;;;;5055682;28;20049;-57
2022/11/17 10:20:57;;;;;;;16.55;10.82;;;6.30;99.90;;;;;;5039136;28;20056;-57
2022/11/17 10:23:27;;;;;;;20.77;12.32;;;6.60;99.90;;;;;;5038656;28;20498;-58
2022/11/17 10:25:57;;;;;;;18.70;12.55;;;8.30;99.90;;;;;;5039405;28;20060;-57
2022/11/17 10:28:30;;;;;;;18.88;10.77;;;7.30;99.90;;;;;;5022163;28;20148;-58
2022/11/17 10:31:02;;;;;;;18.00;10.60;;;6.40;99.90;;;;;;5055756;28;20557;-60
2022/11/17 10:33:45;;;;;;;16.38;9.55;;;6.40;99.90;;;;;;5039057;28;20127;-58
2022/11/17 10:36:20;;;;;;;17.80;9.77;;;6.30;99.90;;;;;;5038757;28;20071;-58
2022/11/17 10:38:48;;;;;;;18.60;10.52;;;7.20;99.90;;;;;;5012025;28;20064;-57
2022/11/17 10:41:18;;;;;;;19.42;10.98;;;6.30;99.90;;;;;;5038931;28;20798;-56
2022/11/17 10:43:56;;;;;;;16.08;9.40;;;6.90;99.90;;;;;;5039147;28;20044;-58
2022/11/17 10:46:23;;;;;;;16.13;10.45;;;6.60;99.90;;;;;;5038613;28;20578;-56
2022/11/17 10:49:03;;;;;;;17.60;9.43;;;7.00;99.90;;;;;;5022693;28;20056;-55
2022/11/17 10:51:33;;;;;;;18.65;10.57;;;6.20;99.90;;;;;;5022656;28;20049;-59
2022/11/17 10:54:22;;;;;;;14.15;8.27;;;6.40;99.90;;;;;;5022745;28;20032;-58
2022/11/17 10:56:54;;;;;;;17.85;10.27;;;6.30;99.90;;;;;;5025079;28;20041;-54
2022/11/17 10:59:29;;;;;;;21.35;10.60;;;6.40;99.90;;;;;;5058342;28;20033;-57
2022/11/17 11:01:55;;;;;;;19.80;10.70;;;6.40;99.90;;;;;;5044790;28;20107;-57
2022/11/17 11:04:29;;;;;;;16.92;9.88;;;7.90;99.90;;;;;;5043165;28;20131;-57
2022/11/17 11:07:07;;;;;;;16.55;9.63;;;6.40;99.90;;;;;;5044774;28;20732;-60
2022/11/17 11:09:36;;;;;;;16.17;8.93;;;6.50;99.90;;;;;;5044721;28;20048;-59
2022/11/17 11:12:04;;;;;;;15.52;9.18;;;6.40;99.90;;;;;;5059423;28;20667;-58
2022/11/17 11:14:37;;;;;;;19.25;10.73;;;6.50;99.90;;;;;;5042940;28;20041;-58
2022/11/17 11:17:15;;;;;;;14.48;10.15;;;6.50;99.90;;;;;;5042385;28;20081;-64
2022/11/17 11:19:43;;;;;;;16.35;9.82;;;8.50;99.90;;;;;;5042553;28;20045;-62
2022/11/17 11:22:30;;;;;;;16.55;9.25;;;7.40;99.90;;;;;;5042788;28;20092;-53
2022/11/17 11:25:14;;;;;;;18.10;10.43;;;6.40;99.90;;;;;;5042631;28;20538;-52
2022/11/17 11:27:40;;;;;;;14.35;8.90;;;6.50;99.90;;;;;;5045232;28;20094;-49
2022/11/17 11:30:15;;;;;;;16.08;10.40;;;6.30;99.90;;;;;;5043738;28;20057;-52
2022/11/17 11:33:02;;;;;;;15.43;9.45;;;7.00;99.90;;;;;;5045411;28;20052;-51
2022/11/17 11:35:51;;;;;;;17.05;9.65;;;6.50;99.90;;;;;;5045772;28;20095;-53
2022/11/17 11:38:23;;;;;;;15.73;9.82;;;6.50;99.90;;;;;;5045484;28;20708;-52
2022/11/17 11:41:04;;;;;;;18.90;11.37;;;6.70;99.90;;;;;;5045119;28;20044;-52
2022/11/17 11:43:59;;;;;;;17.48;9.82;;;6.50;99.90;;;;;;5045494;28;20478;-52
2022/11/17 11:46:52;;;;;;;21.27;10.52;;;6.50;99.90;;;;;;5045690;28;20068;-52
2022/11/17 11:49:33;;;;;;;20.48;10.90;;;6.40;99.90;;;;;;5046181;28;20080;-52
2022/11/17 11:52:01;;;;;;;19.20;11.63;;;6.60;99.90;;;;;;5045780;28;20352;-52
2022/11/17 11:54:35;;;;;;;21.88;11.82;;;7.70;99.90;;;;;;5045389;28;20118;-52
2022/11/17 11:57:01;;;;;;;19.52;10.60;;;6.60;99.90;;;;;;5045563;28;20147;-50
2022/11/17 11:59:38;;;;;;;20.00;10.88;;;6.60;99.90;;;;;;5045682;28;20053;-51
2022/11/17 12:02:10;;;;;;;18.67;9.00;;;7.50;99.90;;;;;;5045689;28;20083;-53
2022/11/17 12:05:10;;;;;;;20.70;11.00;;;7.30;99.90;;;;;;5044784;28;20033;-53
2022/11/17 12:07:46;;;;;;;19.02;9.20;;;7.50;99.90;;;;;;5045058;28;20700;-60
2022/11/17 12:10:27;;;;;;;17.33;9.93;;;6.60;99.90;;;;;;5043635;28;20084;-62
2022/11/17 12:12:53;;;;;;;14.10;8.43;;;6.60;99.90;;;;;;5045412;28;20068;-63
2022/11/17 12:15:19;;;;;;;14.77;8.85;;;7.60;99.90;;;;;;5045369;28;20812;-63
2022/11/17 12:17:51;;;;;;;16.52;8.88;;;7.30;99.90;;;;;;5046190;28;20047;-61
2022/11/17 12:20:35;;;;;;;14.70;8.55;;;6.80;99.90;;;;;;5046780;28;20080;-61
2022/11/17 12:23:25;;;;;;;24.17;9.10;;;6.90;99.90;;;;;;5046558;28;20063;-61
2022/11/17 12:25:56;;;;;;;13.38;7.05;;;6.70;99.90;;;;;;5046658;28;20132;-57
2022/11/17 12:28:35;;;;;;;15.00;8.80;;;7.90;99.90;;;;;;5046760;28;20145;-59
2022/11/17 12:31:31;;;;;;;13.90;8.13;;;7.20;99.90;;;;;;5048723;28;20060;-59
2022/11/17 12:33:59;;;;;;;15.80;8.13;;;6.80;99.90;;;;;;5062248;28;20102;-61
2022/11/17 12:36:32;;;;;;;16.13;8.77;;;7.30;99.90;;;;;;5046196;28;20056;-61
2022/11/17 12:39:08;;;;;;;13.98;7.97;;;7.00;99.90;;;;;;5047199;28;20060;-58
2022/11/17 12:41:46;;;;;;;16.48;8.25;;;7.10;99.90;;;;;;5046124;28;20053;-58
2022/11/17 12:44:36;;;;;;;17.73;8.85;;;6.60;99.90;;;;;;5046203;28;20611;-62
2022/11/17 12:47:14;;;;;;;14.02;7.97;;;6.80;99.90;;;;;;5045898;28;20048;-59
2022/11/17 12:49:59;;;;;;;15.02;8.10;;;7.20;99.90;;;;;;5047281;28;20059;-58
2022/11/17 12:52:38;;;;;;;15.18;7.47;;;8.00;99.90;;;;;;5045335;28;20049;-58
2022/11/17 12:55:20;;;;;;;14.63;8.05;;;6.90;99.90;;;;;;5046907;28;20822;-59
2022/11/17 12:57:54;;;;;;;15.18;8.45;;;6.90;99.90;;;;;;5045846;28;20049;-59
2022/11/17 13:00:23;;;;;;;16.55;8.25;;;6.90;99.90;;;;;;5047075;28;20041;-56
2022/11/17 13:02:58;;;;;;;17.48;8.27;;;7.00;99.90;;;;;;5045413;28;20064;-55
2022/11/17 13:05:26;;;;;;;32.63;10.68;;;7.00;99.90;;;;;;5047127;28;20052;-54
2022/11/17 13:08:22;;;;;;;18.83;9.70;;;7.00;99.90;;;;;;5045709;28;20052;-59
2022/11/17 13:10:50;;;;;;;16.00;9.48;;;6.90;99.90;;;;;;5043847;28;20049;-58
2022/11/17 13:13:23;;;;;;;18.38;9.55;;;7.20;99.90;;;;;;5044568;28;20045;-61
2022/11/17 13:15:51;;;;;;;20.83;9.77;;;6.90;99.90;;;;;;5043476;28;20379;-55
2022/11/17 13:18:38;;;;;;;35.60;11.80;;;7.80;99.90;;;;;;5044718;28;20056;-57
2022/11/17 13:21:25;;;;;;;30.52;11.30;;;7.00;99.90;;;;;;5046446;28;20043;-48
2022/11/17 13:23:52;;;;;;;16.90;9.73;;;7.40;99.90;;;;;;5044975;28;20048;-55
2022/11/17 13:26:24;;;;;;;15.05;9.45;;;7.00;99.90;;;;;;5044691;28;20056;-58
2022/11/17 13:29:08;;;;;;;16.25;9.55;;;7.10;99.90;;;;;;5046941;28;20048;-55